ITY337 LFML-LIRF
Flight info
| Callsign | ITY337 |
|---|---|
| Flight time | 0h 54m |
| Altitude | 27000 |
| Route | NASIK P856 RAPED DCT RAPUR DCT RATAP DCT BTA DCT MOULE DCT XOPTA DCT ELB DCT ELKAP |
| Aircraft | A320/M-SDE3FGHIRWY/LB1 |
Departure
| Time | 2026-05-05 13:08 |
|---|---|
| Airport | Marseille Provence Airport (LFML) |
Arrival
| Time | 2026-05-05 14:03 |
|---|---|
| Airport | Rome–Fiumicino Leonardo da Vinci International Airport (LIRF) |
| Time | Latitude | Longitude | Altitude | Speed | Heading |
|---|---|---|---|---|---|
| 2026-05-05 12:46 | 43.43930 | 5.22239 | 43 ft | 0 kts | 62° |
| 2026-05-05 12:56 | 43.43929 | 5.22236 | 43 ft | 2 kts | 62° |
| 2026-05-05 12:56 | 43.43920 | 5.22215 | 43 ft | 2 kts | 62° |
| 2026-05-05 12:56 | 43.43912 | 5.22194 | 39 ft | 3 kts | 76° |
| 2026-05-05 12:57 | 43.43911 | 5.22169 | 38 ft | 3 kts | 96° |
| 2026-05-05 12:57 | 43.43913 | 5.22153 | 41 ft | 3 kts | 103° |
| 2026-05-05 12:57 | 43.43916 | 5.22137 | 38 ft | 0 kts | 129° |
| 2026-05-05 13:02 | 43.43911 | 5.22145 | 40 ft | 3 kts | 131° |
| 2026-05-05 13:02 | 43.43900 | 5.22160 | 41 ft | 3 kts | 137° |
| 2026-05-05 13:03 | 43.43834 | 5.22212 | 44 ft | 12 kts | 162° |
| 2026-05-05 13:03 | 43.43769 | 5.22211 | 43 ft | 8 kts | 211° |
| 2026-05-05 13:03 | 43.43724 | 5.22172 | 43 ft | 8 kts | 216° |
| 2026-05-05 13:03 | 43.43677 | 5.22126 | 46 ft | 8 kts | 212° |
| 2026-05-05 13:04 | 43.43610 | 5.22128 | 47 ft | 11 kts | 163° |
| 2026-05-05 13:04 | 43.43553 | 5.22164 | 49 ft | 8 kts | 148° |
| 2026-05-05 13:04 | 43.43495 | 5.22214 | 50 ft | 9 kts | 148° |
| 2026-05-05 13:04 | 43.43453 | 5.22250 | 52 ft | 6 kts | 148° |
| 2026-05-05 13:05 | 43.43429 | 5.22271 | 52 ft | 3 kts | 149° |
| 2026-05-05 13:05 | 43.43377 | 5.22299 | 54 ft | 11 kts | 160° |
| 2026-05-05 13:05 | 43.43318 | 5.22345 | 51 ft | 10 kts | 139° |
| 2026-05-05 13:05 | 43.43273 | 5.22403 | 58 ft | 9 kts | 136° |
| 2026-05-05 13:06 | 43.43217 | 5.22470 | 57 ft | 9 kts | 146° |
| 2026-05-05 13:06 | 43.43168 | 5.22486 | 55 ft | 6 kts | 177° |
| 2026-05-05 13:06 | 43.43138 | 5.22484 | 59 ft | 3 kts | 185° |
| 2026-05-05 13:06 | 43.43125 | 5.22482 | 58 ft | 2 kts | 188° |
| 2026-05-05 13:07 | 43.43060 | 5.22417 | 62 ft | 7 kts | 270° |
| 2026-05-05 13:07 | 43.43082 | 5.22345 | 58 ft | 10 kts | 302° |
| 2026-05-05 13:07 | 43.43134 | 5.22266 | 57 ft | 13 kts | 328° |
| 2026-05-05 13:07 | 43.43224 | 5.22154 | 57 ft | 32 kts | 310° |
| 2026-05-05 13:08 | 43.43545 | 5.21656 | 42 ft | 103 kts | 315° |
| 2026-05-05 13:08 | 43.44188 | 5.20760 | 19 ft | 157 kts | 314° |
| 2026-05-05 13:08 | 43.44983 | 5.19641 | 484 ft | 165 kts | 311° |
| 2026-05-05 13:08 | 43.45781 | 5.18514 | 1118 ft | 164 kts | 310° |
| 2026-05-05 13:09 | 43.46582 | 5.17367 | 1550 ft | 176 kts | 309° |
| 2026-05-05 13:09 | 43.47453 | 5.16126 | 2102 ft | 185 kts | 313° |
| 2026-05-05 13:09 | 43.48679 | 5.15350 | 2465 ft | 211 kts | 357° |
| 2026-05-05 13:09 | 43.50132 | 5.15986 | 2874 ft | 233 kts | 34° |
| 2026-05-05 13:10 | 43.51278 | 5.17678 | 3295 ft | 252 kts | 64° |
| 2026-05-05 13:10 | 43.51630 | 5.20093 | 3833 ft | 266 kts | 98° |
| 2026-05-05 13:10 | 43.51379 | 5.22658 | 4707 ft | 272 kts | 99° |
| 2026-05-05 13:10 | 43.51165 | 5.25277 | 5599 ft | 278 kts | 98° |
| 2026-05-05 13:11 | 43.50976 | 5.27927 | 6458 ft | 285 kts | 97° |
| 2026-05-05 13:11 | 43.50789 | 5.30666 | 7289 ft | 288 kts | 97° |
| 2026-05-05 13:11 | 43.50593 | 5.33434 | 8167 ft | 291 kts | 98° |
| 2026-05-05 13:11 | 43.50388 | 5.36226 | 9052 ft | 294 kts | 98° |
| 2026-05-05 13:12 | 43.50175 | 5.39045 | 9937 ft | 297 kts | 98° |
| 2026-05-05 13:12 | 43.49952 | 5.41947 | 10411 ft | 315 kts | 99° |
| 2026-05-05 13:12 | 43.49707 | 5.45059 | 10665 ft | 338 kts | 99° |
| 2026-05-05 13:12 | 43.49454 | 5.48304 | 11185 ft | 348 kts | 99° |
| 2026-05-05 13:13 | 43.49197 | 5.51648 | 11860 ft | 354 kts | 99° |
| 2026-05-05 13:13 | 43.48934 | 5.55056 | 12573 ft | 359 kts | 99° |
| 2026-05-05 13:13 | 43.48664 | 5.58502 | 13270 ft | 364 kts | 100° |
| 2026-05-05 13:13 | 43.48388 | 5.61993 | 13923 ft | 369 kts | 100° |
| 2026-05-05 13:14 | 43.48106 | 5.65537 | 14523 ft | 374 kts | 100° |
| 2026-05-05 13:14 | 43.47821 | 5.69121 | 15142 ft | 378 kts | 100° |
| 2026-05-05 13:14 | 43.47533 | 5.72744 | 15767 ft | 382 kts | 100° |
| 2026-05-05 13:14 | 43.47239 | 5.76404 | 16387 ft | 386 kts | 101° |
| 2026-05-05 13:15 | 43.46945 | 5.80061 | 16983 ft | 391 kts | 101° |
| 2026-05-05 13:15 | 43.46642 | 5.83802 | 17582 ft | 395 kts | 101° |
| 2026-05-05 13:15 | 43.46335 | 5.87580 | 18184 ft | 399 kts | 101° |
| 2026-05-05 13:15 | 43.46023 | 5.91395 | 18705 ft | 403 kts | 101° |
| 2026-05-05 13:16 | 43.45706 | 5.95257 | 19221 ft | 407 kts | 101° |
| 2026-05-05 13:16 | 43.45387 | 5.99150 | 19724 ft | 412 kts | 101° |
| 2026-05-05 13:16 | 43.45065 | 6.03089 | 20227 ft | 416 kts | 101° |
| 2026-05-05 13:16 | 43.44735 | 6.07082 | 20720 ft | 421 kts | 101° |
| 2026-05-05 13:17 | 43.44399 | 6.11106 | 21217 ft | 426 kts | 101° |
| 2026-05-05 13:17 | 43.44062 | 6.15131 | 21716 ft | 430 kts | 101° |
| 2026-05-05 13:17 | 43.43718 | 6.19238 | 22198 ft | 434 kts | 101° |
| 2026-05-05 13:17 | 43.43368 | 6.23392 | 22675 ft | 439 kts | 101° |
| 2026-05-05 13:18 | 43.43013 | 6.27591 | 23146 ft | 443 kts | 102° |
| 2026-05-05 13:18 | 43.42643 | 6.31828 | 23590 ft | 447 kts | 102° |
| 2026-05-05 13:18 | 43.42260 | 6.36086 | 23961 ft | 451 kts | 102° |
| 2026-05-05 13:18 | 43.41868 | 6.40389 | 24347 ft | 454 kts | 102° |
| 2026-05-05 13:19 | 43.41472 | 6.44720 | 24721 ft | 457 kts | 102° |
| 2026-05-05 13:19 | 43.41076 | 6.49030 | 25092 ft | 460 kts | 102° |
| 2026-05-05 13:19 | 43.40673 | 6.53418 | 25452 ft | 463 kts | 102° |
| 2026-05-05 13:19 | 43.40270 | 6.57837 | 25817 ft | 466 kts | 102° |
| 2026-05-05 13:20 | 43.39864 | 6.62276 | 26182 ft | 468 kts | 102° |
| 2026-05-05 13:20 | 43.39454 | 6.66737 | 26536 ft | 471 kts | 102° |
| 2026-05-05 13:20 | 43.39035 | 6.71221 | 26854 ft | 473 kts | 102° |
| 2026-05-05 13:20 | 43.38621 | 6.75648 | 26949 ft | 469 kts | 102° |
| 2026-05-05 13:21 | 43.38212 | 6.80068 | 26970 ft | 462 kts | 102° |
| 2026-05-05 13:21 | 43.37856 | 6.83886 | 26964 ft | 460 kts | 103° |
| 2026-05-05 13:21 | 43.37397 | 6.88225 | 26963 ft | 456 kts | 107° |
| 2026-05-05 13:21 | 43.36553 | 6.92395 | 26968 ft | 448 kts | 116° |
| 2026-05-05 13:22 | 43.35491 | 6.96420 | 26972 ft | 448 kts | 116° |
| 2026-05-05 13:22 | 43.34433 | 7.00451 | 26964 ft | 448 kts | 116° |
| 2026-05-05 13:22 | 43.33378 | 7.04492 | 26964 ft | 449 kts | 116° |
| 2026-05-05 13:22 | 43.32339 | 7.08476 | 26963 ft | 449 kts | 116° |
| 2026-05-05 13:23 | 43.31288 | 7.12511 | 26965 ft | 449 kts | 116° |
| 2026-05-05 13:23 | 43.30234 | 7.16554 | 26957 ft | 449 kts | 116° |
| 2026-05-05 13:23 | 43.29179 | 7.20591 | 26952 ft | 449 kts | 116° |
| 2026-05-05 13:23 | 43.28119 | 7.24633 | 26950 ft | 449 kts | 116° |
| 2026-05-05 13:24 | 43.27071 | 7.28618 | 26942 ft | 449 kts | 116° |
| 2026-05-05 13:24 | 43.26007 | 7.32653 | 26939 ft | 449 kts | 116° |
| 2026-05-05 13:24 | 43.24943 | 7.36678 | 26938 ft | 449 kts | 116° |
| 2026-05-05 13:24 | 43.23877 | 7.40694 | 26936 ft | 449 kts | 116° |
| 2026-05-05 13:25 | 43.22808 | 7.44721 | 26936 ft | 449 kts | 116° |
| 2026-05-05 13:25 | 43.21739 | 7.48745 | 26938 ft | 449 kts | 116° |
| 2026-05-05 13:25 | 43.20669 | 7.52768 | 26939 ft | 449 kts | 116° |
| 2026-05-05 13:25 | 43.19610 | 7.56739 | 26942 ft | 449 kts | 116° |
| 2026-05-05 13:26 | 43.18532 | 7.60772 | 26941 ft | 449 kts | 116° |
| 2026-05-05 13:26 | 43.17457 | 7.64794 | 26961 ft | 449 kts | 116° |
| 2026-05-05 13:26 | 43.16377 | 7.68826 | 26982 ft | 450 kts | 116° |
| 2026-05-05 13:26 | 43.15295 | 7.72860 | 26978 ft | 450 kts | 116° |
| 2026-05-05 13:27 | 43.14211 | 7.76890 | 26966 ft | 450 kts | 116° |
| 2026-05-05 13:27 | 43.13141 | 7.80856 | 26962 ft | 450 kts | 116° |
| 2026-05-05 13:27 | 43.12059 | 7.84869 | 26964 ft | 450 kts | 116° |
| 2026-05-05 13:27 | 43.10974 | 7.88892 | 26961 ft | 449 kts | 116° |
| 2026-05-05 13:28 | 43.09890 | 7.92909 | 26957 ft | 449 kts | 116° |
| 2026-05-05 13:28 | 43.08804 | 7.96919 | 26956 ft | 449 kts | 116° |
| 2026-05-05 13:28 | 43.07714 | 8.00927 | 26948 ft | 449 kts | 116° |
| 2026-05-05 13:28 | 43.06623 | 8.04933 | 26949 ft | 449 kts | 116° |
| 2026-05-05 13:29 | 43.05533 | 8.08941 | 26949 ft | 449 kts | 116° |
| 2026-05-05 13:29 | 43.04442 | 8.12943 | 26950 ft | 449 kts | 116° |
| 2026-05-05 13:29 | 43.03351 | 8.16940 | 26952 ft | 449 kts | 116° |
| 2026-05-05 13:29 | 43.02269 | 8.20897 | 26949 ft | 449 kts | 116° |
| 2026-05-05 13:30 | 43.01173 | 8.24892 | 26946 ft | 449 kts | 116° |
| 2026-05-05 13:30 | 43.00072 | 8.28900 | 26950 ft | 449 kts | 116° |
| 2026-05-05 13:30 | 42.98974 | 8.32890 | 26953 ft | 449 kts | 116° |
| 2026-05-05 13:30 | 42.97878 | 8.36884 | 26948 ft | 449 kts | 116° |
| 2026-05-05 13:31 | 42.96777 | 8.40883 | 26944 ft | 449 kts | 116° |
| 2026-05-05 13:31 | 42.95688 | 8.44829 | 26948 ft | 449 kts | 116° |
| 2026-05-05 13:31 | 42.94585 | 8.48815 | 26951 ft | 449 kts | 116° |
| 2026-05-05 13:31 | 42.93462 | 8.52854 | 26948 ft | 449 kts | 116° |
| 2026-05-05 13:32 | 42.92368 | 8.56785 | 26947 ft | 449 kts | 116° |
| 2026-05-05 13:32 | 42.91258 | 8.60769 | 26946 ft | 449 kts | 116° |
| 2026-05-05 13:32 | 42.90148 | 8.64754 | 26944 ft | 449 kts | 116° |
| 2026-05-05 13:32 | 42.88942 | 8.68663 | 26944 ft | 444 kts | 123° |
| 2026-05-05 13:33 | 42.87481 | 8.72373 | 26941 ft | 443 kts | 124° |
| 2026-05-05 13:33 | 42.86011 | 8.76069 | 26944 ft | 443 kts | 124° |
| 2026-05-05 13:33 | 42.84541 | 8.79763 | 26942 ft | 443 kts | 124° |
| 2026-05-05 13:33 | 42.83071 | 8.83461 | 26939 ft | 443 kts | 124° |
| 2026-05-05 13:34 | 42.81721 | 8.87189 | 26942 ft | 449 kts | 115° |
| 2026-05-05 13:34 | 42.81021 | 8.91360 | 26945 ft | 458 kts | 98° |
| 2026-05-05 13:34 | 42.80799 | 8.95695 | 26942 ft | 459 kts | 97° |
| 2026-05-05 13:34 | 42.80602 | 9.00037 | 26946 ft | 459 kts | 97° |
| 2026-05-05 13:35 | 42.80416 | 9.04380 | 26944 ft | 459 kts | 96° |
| 2026-05-05 13:35 | 42.80231 | 9.08723 | 26947 ft | 459 kts | 96° |
| 2026-05-05 13:35 | 42.80043 | 9.13061 | 26954 ft | 459 kts | 96° |
| 2026-05-05 13:35 | 42.79850 | 9.17402 | 26957 ft | 459 kts | 97° |
| 2026-05-05 13:36 | 42.79649 | 9.21737 | 26955 ft | 459 kts | 97° |
| 2026-05-05 13:36 | 42.79443 | 9.26080 | 26957 ft | 459 kts | 97° |
| 2026-05-05 13:36 | 42.79232 | 9.30423 | 26961 ft | 459 kts | 97° |
| 2026-05-05 13:36 | 42.79022 | 9.34764 | 26962 ft | 459 kts | 97° |
| 2026-05-05 13:37 | 42.78819 | 9.39044 | 26962 ft | 459 kts | 97° |
| 2026-05-05 13:37 | 42.78613 | 9.43376 | 26957 ft | 458 kts | 96° |
| 2026-05-05 13:37 | 42.78403 | 9.47715 | 26960 ft | 458 kts | 97° |
| 2026-05-05 13:37 | 42.78190 | 9.52049 | 26959 ft | 458 kts | 97° |
| 2026-05-05 13:38 | 42.77975 | 9.56380 | 26960 ft | 458 kts | 97° |
| 2026-05-05 13:38 | 42.77760 | 9.60710 | 26962 ft | 458 kts | 97° |
| 2026-05-05 13:38 | 42.77542 | 9.65033 | 26959 ft | 458 kts | 97° |
| 2026-05-05 13:38 | 42.77323 | 9.69360 | 26959 ft | 458 kts | 97° |
| 2026-05-05 13:39 | 42.77105 | 9.73682 | 26959 ft | 458 kts | 97° |
| 2026-05-05 13:39 | 42.76885 | 9.78014 | 26960 ft | 458 kts | 97° |
| 2026-05-05 13:39 | 42.76663 | 9.82336 | 26960 ft | 458 kts | 97° |
| 2026-05-05 13:39 | 42.76439 | 9.86652 | 26961 ft | 457 kts | 97° |
| 2026-05-05 13:40 | 42.76213 | 9.90973 | 26962 ft | 457 kts | 97° |
| 2026-05-05 13:40 | 42.75988 | 9.95292 | 26962 ft | 457 kts | 97° |
| 2026-05-05 13:40 | 42.75759 | 9.99605 | 26963 ft | 457 kts | 97° |
| 2026-05-05 13:40 | 42.75533 | 10.03865 | 26964 ft | 457 kts | 97° |
| 2026-05-05 13:41 | 42.75300 | 10.08177 | 26965 ft | 456 kts | 97° |
| 2026-05-05 13:41 | 42.75062 | 10.12490 | 26962 ft | 456 kts | 97° |
| 2026-05-05 13:41 | 42.74903 | 10.15347 | 26966 ft | 456 kts | 97° |
| 2026-05-05 13:41 | 42.74578 | 10.21093 | 26963 ft | 455 kts | 97° |
| 2026-05-05 13:42 | 42.74418 | 10.23945 | 26961 ft | 455 kts | 97° |
| 2026-05-05 13:42 | 42.74105 | 10.29652 | 26962 ft | 455 kts | 96° |
| 2026-05-05 13:42 | 42.73946 | 10.32560 | 26965 ft | 455 kts | 96° |
| 2026-05-05 13:42 | 42.73707 | 10.36852 | 26968 ft | 455 kts | 97° |
| 2026-05-05 13:43 | 42.73466 | 10.41093 | 26967 ft | 455 kts | 97° |
| 2026-05-05 13:43 | 42.73220 | 10.45371 | 26970 ft | 455 kts | 97° |
| 2026-05-05 13:43 | 42.72968 | 10.49670 | 26967 ft | 454 kts | 97° |
| 2026-05-05 13:43 | 42.72715 | 10.53955 | 26972 ft | 454 kts | 97° |
| 2026-05-05 13:44 | 42.72460 | 10.58240 | 26971 ft | 454 kts | 98° |
| 2026-05-05 13:44 | 42.71921 | 10.62451 | 26971 ft | 450 kts | 108° |
| 2026-05-05 13:44 | 42.70908 | 10.66460 | 26974 ft | 446 kts | 118° |
| 2026-05-05 13:44 | 42.69471 | 10.70162 | 26973 ft | 440 kts | 126° |
| 2026-05-05 13:45 | 42.67844 | 10.73698 | 26973 ft | 440 kts | 126° |
| 2026-05-05 13:45 | 42.66245 | 10.77188 | 26975 ft | 441 kts | 126° |
| 2026-05-05 13:45 | 42.64627 | 10.80728 | 26974 ft | 441 kts | 126° |
| 2026-05-05 13:45 | 42.63017 | 10.84248 | 26789 ft | 436 kts | 126° |
| 2026-05-05 13:46 | 42.61428 | 10.87725 | 26462 ft | 430 kts | 126° |
| 2026-05-05 13:46 | 42.59852 | 10.91162 | 25933 ft | 428 kts | 126° |
| 2026-05-05 13:46 | 42.58275 | 10.94584 | 25424 ft | 425 kts | 126° |
| 2026-05-05 13:46 | 42.56702 | 10.97979 | 24922 ft | 423 kts | 126° |
| 2026-05-05 13:47 | 42.55139 | 11.01352 | 24420 ft | 421 kts | 126° |
| 2026-05-05 13:47 | 42.53586 | 11.04710 | 23990 ft | 417 kts | 125° |
| 2026-05-05 13:47 | 42.52048 | 11.08043 | 23589 ft | 413 kts | 125° |
| 2026-05-05 13:47 | 42.50556 | 11.11296 | 23091 ft | 410 kts | 125° |
| 2026-05-05 13:48 | 42.49065 | 11.14596 | 22581 ft | 408 kts | 124° |
| 2026-05-05 13:48 | 42.47602 | 11.17865 | 22110 ft | 404 kts | 124° |
| 2026-05-05 13:48 | 42.46152 | 11.21123 | 21656 ft | 401 kts | 124° |
| 2026-05-05 13:48 | 42.44718 | 11.24349 | 21202 ft | 398 kts | 124° |
| 2026-05-05 13:49 | 42.43295 | 11.27544 | 20763 ft | 395 kts | 124° |
| 2026-05-05 13:49 | 42.41891 | 11.30678 | 20337 ft | 392 kts | 124° |
| 2026-05-05 13:49 | 42.40482 | 11.33817 | 19917 ft | 389 kts | 124° |
| 2026-05-05 13:49 | 42.39080 | 11.36925 | 19498 ft | 386 kts | 124° |
| 2026-05-05 13:50 | 42.37684 | 11.40014 | 19074 ft | 383 kts | 124° |
| 2026-05-05 13:50 | 42.36284 | 11.43107 | 18432 ft | 387 kts | 124° |
| 2026-05-05 13:50 | 42.34872 | 11.46227 | 17754 ft | 390 kts | 124° |
| 2026-05-05 13:50 | 42.33461 | 11.49351 | 17070 ft | 384 kts | 124° |
| 2026-05-05 13:51 | 42.32102 | 11.52363 | 16413 ft | 375 kts | 124° |
| 2026-05-05 13:51 | 42.30760 | 11.55338 | 15758 ft | 366 kts | 124° |
| 2026-05-05 13:51 | 42.29444 | 11.58244 | 15121 ft | 358 kts | 124° |
| 2026-05-05 13:51 | 42.28156 | 11.61084 | 14527 ft | 352 kts | 124° |
| 2026-05-05 13:52 | 42.26884 | 11.63887 | 13961 ft | 348 kts | 124° |
| 2026-05-05 13:52 | 42.25611 | 11.66687 | 13348 ft | 351 kts | 125° |
| 2026-05-05 13:52 | 42.24340 | 11.69476 | 12712 ft | 344 kts | 125° |
| 2026-05-05 13:52 | 42.23102 | 11.72197 | 12104 ft | 338 kts | 125° |
| 2026-05-05 13:53 | 42.21881 | 11.74872 | 11555 ft | 329 kts | 125° |
| 2026-05-05 13:53 | 42.20714 | 11.77433 | 11049 ft | 321 kts | 125° |
| 2026-05-05 13:53 | 42.19556 | 11.79969 | 10540 ft | 313 kts | 125° |
| 2026-05-05 13:53 | 42.18424 | 11.82444 | 10045 ft | 306 kts | 125° |
| 2026-05-05 13:54 | 42.17316 | 11.84862 | 9502 ft | 300 kts | 125° |
| 2026-05-05 13:54 | 42.16234 | 11.87223 | 8962 ft | 293 kts | 125° |
| 2026-05-05 13:54 | 42.15173 | 11.89539 | 8429 ft | 288 kts | 126° |
| 2026-05-05 13:54 | 42.14126 | 11.91813 | 7905 ft | 282 kts | 126° |
| 2026-05-05 13:55 | 42.13100 | 11.94037 | 7386 ft | 276 kts | 125° |
| 2026-05-05 13:55 | 42.12096 | 11.96216 | 6874 ft | 270 kts | 125° |
| 2026-05-05 13:55 | 42.11117 | 11.98348 | 6367 ft | 264 kts | 125° |
| 2026-05-05 13:55 | 42.10167 | 12.00412 | 5838 ft | 260 kts | 125° |
| 2026-05-05 13:56 | 42.09223 | 12.02467 | 5309 ft | 256 kts | 125° |
| 2026-05-05 13:56 | 42.08301 | 12.04481 | 4790 ft | 249 kts | 126° |
| 2026-05-05 13:56 | 42.07401 | 12.06444 | 4259 ft | 243 kts | 125° |
| 2026-05-05 13:56 | 42.06513 | 12.08370 | 3731 ft | 240 kts | 125° |
| 2026-05-05 13:57 | 42.05642 | 12.10256 | 3209 ft | 235 kts | 126° |
| 2026-05-05 13:57 | 42.04780 | 12.12116 | 2681 ft | 232 kts | 125° |
| 2026-05-05 13:57 | 42.03960 | 12.13894 | 2517 ft | 215 kts | 126° |
| 2026-05-05 13:57 | 42.03190 | 12.15564 | 2514 ft | 204 kts | 126° |
| 2026-05-05 13:58 | 42.02461 | 12.17144 | 2505 ft | 195 kts | 126° |
| 2026-05-05 13:58 | 42.01656 | 12.18567 | 2503 ft | 187 kts | 143° |
| 2026-05-05 13:58 | 42.00562 | 12.19442 | 2513 ft | 182 kts | 165° |
| 2026-05-05 13:58 | 41.99357 | 12.19949 | 2517 ft | 181 kts | 164° |
| 2026-05-05 13:59 | 41.97106 | 12.20897 | 2509 ft | 156 kts | 165° |
| 2026-05-05 13:59 | 41.96103 | 12.21319 | 2384 ft | 148 kts | 165° |
| 2026-05-05 14:00 | 41.94216 | 12.22112 | 2032 ft | 134 kts | 163° |
| 2026-05-05 14:00 | 41.93344 | 12.22478 | 1865 ft | 129 kts | 164° |
| 2026-05-05 14:00 | 41.92493 | 12.22836 | 1717 ft | 128 kts | 164° |
| 2026-05-05 14:00 | 41.91649 | 12.23190 | 1543 ft | 127 kts | 164° |
| 2026-05-05 14:01 | 41.90809 | 12.23543 | 1381 ft | 127 kts | 165° |
| 2026-05-05 14:01 | 41.89973 | 12.23893 | 1195 ft | 126 kts | 164° |
| 2026-05-05 14:01 | 41.89136 | 12.24245 | 1019 ft | 126 kts | 163° |
| 2026-05-05 14:01 | 41.88297 | 12.24597 | 844 ft | 126 kts | 164° |
| 2026-05-05 14:02 | 41.87460 | 12.24948 | 672 ft | 125 kts | 163° |
| 2026-05-05 14:02 | 41.86640 | 12.25292 | 496 ft | 123 kts | 164° |
| 2026-05-05 14:02 | 41.85828 | 12.25632 | 333 ft | 122 kts | 163° |
| 2026-05-05 14:02 | 41.85016 | 12.25970 | 167 ft | 122 kts | 161° |
| 2026-05-05 14:03 | 41.84212 | 12.26288 | 40 ft | 114 kts | 161° |
| 2026-05-05 14:03 | 41.83566 | 12.26577 | 18 ft | 75 kts | 159° |
| 2026-05-05 14:03 | 41.83212 | 12.26660 | 15 ft | 39 kts | 189° |
| 2026-05-05 14:03 | 41.82958 | 12.26586 | 12 ft | 36 kts | 193° |
| 2026-05-05 14:04 | 41.82727 | 12.26613 | 12 ft | 32 kts | 165° |
| 2026-05-05 14:04 | 41.82511 | 12.26696 | 11 ft | 34 kts | 162° |
| 2026-05-05 14:04 | 41.82298 | 12.26790 | 11 ft | 31 kts | 164° |
| 2026-05-05 14:04 | 41.82099 | 12.26872 | 11 ft | 29 kts | 162° |
| 2026-05-05 14:05 | 41.81915 | 12.26955 | 11 ft | 27 kts | 161° |
| 2026-05-05 14:05 | 41.81740 | 12.27029 | 12 ft | 26 kts | 165° |
| 2026-05-05 14:05 | 41.81568 | 12.27093 | 12 ft | 25 kts | 162° |
| 2026-05-05 14:05 | 41.81403 | 12.27163 | 12 ft | 25 kts | 165° |
| 2026-05-05 14:06 | 41.81233 | 12.27236 | 12 ft | 26 kts | 161° |
| 2026-05-05 14:06 | 41.81065 | 12.27307 | 12 ft | 25 kts | 162° |
| 2026-05-05 14:06 | 41.80900 | 12.27349 | 12 ft | 24 kts | 186° |
| 2026-05-05 14:06 | 41.80734 | 12.27313 | 13 ft | 24 kts | 191° |
| 2026-05-05 14:07 | 41.80633 | 12.27148 | 13 ft | 25 kts | 253° |
| 2026-05-05 14:07 | 41.80574 | 12.26924 | 15 ft | 26 kts | 249° |
| 2026-05-05 14:07 | 41.80504 | 12.26692 | 15 ft | 27 kts | 247° |
| 2026-05-05 14:07 | 41.80440 | 12.26446 | 17 ft | 28 kts | 247° |
| 2026-05-05 14:08 | 41.80277 | 12.26403 | 14 ft | 26 kts | 171° |
| 2026-05-05 14:08 | 41.80107 | 12.26339 | 14 ft | 26 kts | 204° |
| 2026-05-05 14:08 | 41.79940 | 12.26238 | 14 ft | 26 kts | 204° |
| 2026-05-05 14:08 | 41.79791 | 12.26141 | 16 ft | 22 kts | 215° |
| 2026-05-05 14:09 | 41.79805 | 12.25991 | 16 ft | 16 kts | 304° |
| 2026-05-05 14:09 | 41.79829 | 12.25857 | 14 ft | 14 kts | 246° |
| 2026-05-05 14:09 | 41.79789 | 12.25753 | 14 ft | 11 kts | 255° |
| 2026-05-05 14:09 | 41.79798 | 12.25700 | 14 ft | 0 kts | 292° |